sensor_id;sensor_type;location;lat;lon;timestamp;P1;durP1;ratioP1;P2;durP2;ratioP2
9186;SDS011;7273;48.902;9.410;2023-01-29T00:02:02;709.58;;;267.40;;
9186;SDS011;7273;48.902;9.410;2023-01-29T00:04:29;734.00;;;281.05;;
9186;SDS011;7273;48.902;9.410;2023-01-29T00:06:55;693.65;;;255.23;;
9186;SDS011;7273;48.902;9.410;2023-01-29T00:09:20;707.40;;;266.90;;
9186;SDS011;7273;48.902;9.410;2023-01-29T00:11:46;645.38;;;228.52;;
9186;SDS011;7273;48.902;9.410;2023-01-29T00:14:11;657.42;;;237.82;;
9186;SDS011;7273;48.902;9.410;2023-01-29T00:16:37;678.00;;;252.38;;
9186;SDS011;7273;48.902;9.410;2023-01-29T00:19:03;699.40;;;264.77;;
9186;SDS011;7273;48.902;9.410;2023-01-29T00:21:28;695.22;;;261.33;;
9186;SDS011;7273;48.902;9.410;2023-01-29T00:23:55;705.78;;;266.58;;
9186;SDS011;7273;48.902;9.410;2023-01-29T00:26:21;718.25;;;272.08;;
9186;SDS011;7273;48.902;9.410;2023-01-29T00:28:46;717.85;;;272.42;;
9186;SDS011;7273;48.902;9.410;2023-01-29T00:31:13;727.03;;;277.40;;
9186;SDS011;7273;48.902;9.410;2023-01-29T00:33:43;730.70;;;279.38;;
9186;SDS011;7273;48.902;9.410;2023-01-29T00:36:09;725.90;;;277.02;;
9186;SDS011;7273;48.902;9.410;2023-01-29T00:38:36;730.95;;;279.58;;
9186;SDS011;7273;48.902;9.410;2023-01-29T00:41:09;733.03;;;279.98;;
9186;SDS011;7273;48.902;9.410;2023-01-29T00:43:55;727.17;;;278.95;;
9186;SDS011;7273;48.902;9.410;2023-01-29T00:46:40;741.25;;;287.85;;
9186;SDS011;7273;48.902;9.410;2023-01-29T00:49:06;748.75;;;289.60;;
9186;SDS011;7273;48.902;9.410;2023-01-29T00:51:35;752.55;;;291.00;;
9186;SDS011;7273;48.902;9.410;2023-01-29T09:08:24;193.95;;;76.70;;
9186;SDS011;7273;48.902;9.410;2023-01-29T09:10:49;192.45;;;77.57;;
9186;SDS011;7273;48.902;9.410;2023-01-29T09:13:15;190.75;;;75.40;;
9186;SDS011;7273;48.902;9.410;2023-01-29T09:15:40;189.50;;;75.07;;
9186;SDS011;7273;48.902;9.410;2023-01-29T09:18:06;192.90;;;76.18;;
9186;SDS011;7273;48.902;9.410;2023-01-29T09:20:31;190.90;;;75.65;;
9186;SDS011;7273;48.902;9.410;2023-01-29T09:22:57;189.30;;;76.57;;
9186;SDS011;7273;48.902;9.410;2023-01-29T09:25:23;196.50;;;76.60;;
9186;SDS011;7273;48.902;9.410;2023-01-29T09:27:49;191.20;;;75.22;;
9186;SDS011;7273;48.902;9.410;2023-01-29T09:30:14;194.48;;;76.55;;
9186;SDS011;7273;48.902;9.410;2023-01-29T09:32:40;197.93;;;77.38;;
9186;SDS011;7273;48.902;9.410;2023-01-29T09:35:05;201.98;;;78.45;;
9186;SDS011;7273;48.902;9.410;2023-01-29T09:37:31;212.45;;;81.45;;
9186;SDS011;7273;48.902;9.410;2023-01-29T09:39:57;234.57;;;87.33;;
9186;SDS011;7273;48.902;9.410;2023-01-29T09:42:23;311.13;;;109.78;;
9186;SDS011;7273;48.902;9.410;2023-01-29T09:44:59;250.73;;;91.75;;
9186;SDS011;7273;48.902;9.410;2023-01-29T09:47:31;172.50;;;69.35;;
9186;SDS011;7273;48.902;9.410;2023-01-29T09:50:00;166.65;;;67.70;;
9186;SDS011;7273;48.902;9.410;2023-01-29T09:57:58;201.35;;;78.25;;
9186;SDS011;7273;48.902;9.410;2023-01-29T10:00:39;198.20;;;77.40;;
9186;SDS011;7273;48.902;9.410;2023-01-29T10:11:16;187.60;;;74.40;;
9186;SDS011;7273;48.902;9.410;2023-01-29T10:13:51;189.00;;;74.35;;
9186;SDS011;7273;48.902;9.410;2023-01-29T10:19:48;193.02;;;75.78;;
9186;SDS011;7273;48.902;9.410;2023-01-29T10:25:02;193.40;;;75.35;;
9186;SDS011;7273;48.902;9.410;2023-01-29T10:27:34;189.57;;;74.78;;
9186;SDS011;7273;48.902;9.410;2023-01-29T10:30:05;191.55;;;74.57;;
9186;SDS011;7273;48.902;9.410;2023-01-29T10:32:36;190.85;;;74.75;;
9186;SDS011;7273;48.902;9.410;2023-01-29T10:35:02;192.13;;;74.50;;
9186;SDS011;7273;48.902;9.410;2023-01-29T10:37:40;193.43;;;75.53;;
9186;SDS011;7273;48.902;9.410;2023-01-29T10:40:23;195.52;;;75.68;;
9186;SDS011;7273;48.902;9.410;2023-01-29T10:42:54;195.35;;;75.78;;
9186;SDS011;7273;48.902;9.410;2023-01-29T10:45:40;194.95;;;75.80;;
9186;SDS011;7273;48.902;9.410;2023-01-29T10:51:04;194.93;;;76.13;;
9186;SDS011;7273;48.902;9.410;2023-01-29T10:59:17;196.80;;;76.15;;
9186;SDS011;7273;48.902;9.410;2023-01-29T11:01:57;191.77;;;75.13;;
9186;SDS011;7273;48.902;9.410;2023-01-29T11:04:24;193.48;;;75.75;;
9186;SDS011;7273;48.902;9.410;2023-01-29T11:06:52;186.27;;;73.15;;
9186;SDS011;7273;48.902;9.410;2023-01-29T11:14:28;177.30;;;71.18;;
9186;SDS011;7273;48.902;9.410;2023-01-29T11:17:01;177.48;;;70.68;;
9186;SDS011;7273;48.902;9.410;2023-01-29T11:19:36;175.07;;;70.57;;
9186;SDS011;7273;48.902;9.410;2023-01-29T11:22:04;178.90;;;71.45;;
9186;SDS011;7273;48.902;9.410;2023-01-29T11:26:58;184.97;;;73.77;;
9186;SDS011;7273;48.902;9.410;2023-01-29T11:29:36;179.60;;;71.30;;
9186;SDS011;7273;48.902;9.410;2023-01-29T11:32:13;177.93;;;70.85;;
9186;SDS011;7273;48.902;9.410;2023-01-29T11:37:37;181.00;;;71.97;;
9186;SDS011;7273;48.902;9.410;2023-01-29T11:40:49;181.40;;;71.05;;
9186;SDS011;7273;48.902;9.410;2023-01-29T11:42:51;182.82;;;72.72;;
9186;SDS011;7273;48.902;9.410;2023-01-29T11:45:30;179.30;;;70.93;;
9186;SDS011;7273;48.902;9.410;2023-01-29T11:47:57;180.80;;;71.68;;
9186;SDS011;7273;48.902;9.410;2023-01-29T11:50:25;179.32;;;71.80;;
9186;SDS011;7273;48.902;9.410;2023-01-29T11:52:54;177.65;;;70.68;;
9186;SDS011;7273;48.902;9.410;2023-01-29T11:55:20;176.85;;;70.15;;
9186;SDS011;7273;48.902;9.410;2023-01-29T11:57:49;179.25;;;71.10;;
9186;SDS011;7273;48.902;9.410;2023-01-29T12:00:28;180.27;;;71.50;;
9186;SDS011;7273;48.902;9.410;2023-01-29T12:03:05;180.15;;;71.85;;
9186;SDS011;7273;48.902;9.410;2023-01-29T12:08:09;188.38;;;74.05;;
9186;SDS011;7273;48.902;9.410;2023-01-29T12:10:41;182.93;;;71.97;;
9186;SDS011;7273;48.902;9.410;2023-01-29T12:15:44;181.68;;;71.40;;
9186;SDS011;7273;48.902;9.410;2023-01-29T12:20:40;181.07;;;72.53;;
9186;SDS011;7273;48.902;9.410;2023-01-29T12:26:13;182.57;;;72.40;;
9186;SDS011;7273;48.902;9.410;2023-01-29T12:28:51;185.82;;;74.78;;
9186;SDS011;7273;48.902;9.410;2023-01-29T12:31:39;184.55;;;72.57;;
9186;SDS011;7273;48.902;9.410;2023-01-29T12:34:29;183.13;;;71.78;;
9186;SDS011;7273;48.902;9.410;2023-01-29T12:39:47;187.52;;;73.80;;
9186;SDS011;7273;48.902;9.410;2023-01-29T12:42:18;182.90;;;71.97;;
9186;SDS011;7273;48.902;9.410;2023-01-29T12:45:00;182.38;;;71.97;;
9186;SDS011;7273;48.902;9.410;2023-01-29T12:47:29;178.48;;;72.65;;
9186;SDS011;7273;48.902;9.410;2023-01-29T12:50:01;185.15;;;73.00;;
9186;SDS011;7273;48.902;9.410;2023-01-29T12:52:38;177.85;;;70.68;;
9186;SDS011;7273;48.902;9.410;2023-01-29T12:55:10;177.88;;;70.80;;
9186;SDS011;7273;48.902;9.410;2023-01-29T12:57:47;177.18;;;70.88;;
9186;SDS011;7273;48.902;9.410;2023-01-29T13:00:19;178.15;;;70.93;;
9186;SDS011;7273;48.902;9.410;2023-01-29T13:05:24;176.23;;;70.55;;
9186;SDS011;7273;48.902;9.410;2023-01-29T13:08:00;177.40;;;70.63;;
9186;SDS011;7273;48.902;9.410;2023-01-29T13:10:34;176.85;;;70.28;;
9186;SDS011;7273;48.902;9.410;2023-01-29T13:13:03;179.88;;;71.30;;
9186;SDS011;7273;48.902;9.410;2023-01-29T13:15:37;173.85;;;69.40;;
9186;SDS011;7273;48.902;9.410;2023-01-29T13:20:43;172.43;;;69.88;;
9186;SDS011;7273;48.902;9.410;2023-01-29T13:25:48;184.88;;;73.15;;
9186;SDS011;7273;48.902;9.410;2023-01-29T13:28:22;178.95;;;70.80;;
9186;SDS011;7273;48.902;9.410;2023-01-29T13:33:52;179.68;;;71.18;;
9186;SDS011;7273;48.902;9.410;2023-01-29T13:36:22;178.30;;;70.70;;
9186;SDS011;7273;48.902;9.410;2023-01-29T13:39:00;184.00;;;71.85;;
9186;SDS011;7273;48.902;9.410;2023-01-29T13:41:30;180.70;;;71.72;;
9186;SDS011;7273;48.902;9.410;2023-01-29T13:44:01;178.27;;;70.78;;
9186;SDS011;7273;48.902;9.410;2023-01-29T13:46:29;179.98;;;71.00;;
9186;SDS011;7273;48.902;9.410;2023-01-29T13:48:56;181.68;;;71.75;;
9186;SDS011;7273;48.902;9.410;2023-01-29T13:51:31;181.02;;;71.55;;
9186;SDS011;7273;48.902;9.410;2023-01-29T13:54:04;182.30;;;71.50;;
9186;SDS011;7273;48.902;9.410;2023-01-29T13:56:44;184.82;;;72.90;;
9186;SDS011;7273;48.902;9.410;2023-01-29T13:59:24;184.75;;;72.63;;
9186;SDS011;7273;48.902;9.410;2023-01-29T14:05:31;184.27;;;72.20;;
9186;SDS011;7273;48.902;9.410;2023-01-29T14:07:56;188.80;;;73.30;;
9186;SDS011;7273;48.902;9.410;2023-01-29T14:10:31;187.68;;;73.30;;
9186;SDS011;7273;48.902;9.410;2023-01-29T14:16:25;191.82;;;73.88;;
9186;SDS011;7273;48.902;9.410;2023-01-29T14:18:33;191.30;;;74.07;;
9186;SDS011;7273;48.902;9.410;2023-01-29T14:21:04;193.45;;;75.00;;
9186;SDS011;7273;48.902;9.410;2023-01-29T14:23:44;192.10;;;74.47;;
9186;SDS011;7273;48.902;9.410;2023-01-29T14:28:57;196.85;;;75.63;;
9186;SDS011;7273;48.902;9.410;2023-01-29T14:31:31;196.88;;;75.55;;
9186;SDS011;7273;48.902;9.410;2023-01-29T14:34:03;198.93;;;76.53;;
9186;SDS011;7273;48.902;9.410;2023-01-29T14:36:37;200.10;;;76.55;;
9186;SDS011;7273;48.902;9.410;2023-01-29T14:39:05;200.68;;;76.95;;
9186;SDS011;7273;48.902;9.410;2023-01-29T14:41:42;206.15;;;78.75;;
9186;SDS011;7273;48.902;9.410;2023-01-29T14:47:18;211.57;;;80.28;;
9186;SDS011;7273;48.902;9.410;2023-01-29T14:49:49;214.48;;;81.03;;
9186;SDS011;7273;48.902;9.410;2023-01-29T14:52:18;219.20;;;82.00;;
9186;SDS011;7273;48.902;9.410;2023-01-29T14:54:47;231.23;;;84.55;;
9186;SDS011;7273;48.902;9.410;2023-01-29T14:57:15;246.88;;;89.55;;
9186;SDS011;7273;48.902;9.410;2023-01-29T14:59:45;273.95;;;96.20;;
9186;SDS011;7273;48.902;9.410;2023-01-29T15:02:17;288.77;;;99.53;;
9186;SDS011;7273;48.902;9.410;2023-01-29T15:04:47;275.50;;;96.00;;
9186;SDS011;7273;48.902;9.410;2023-01-29T15:07:22;288.05;;;99.40;;
9186;SDS011;7273;48.902;9.410;2023-01-29T15:09:54;256.83;;;91.50;;
9186;SDS011;7273;48.902;9.410;2023-01-29T15:20:31;293.58;;;100.68;;
9186;SDS011;7273;48.902;9.410;2023-01-29T15:22:59;264.23;;;93.15;;
9186;SDS011;7273;48.902;9.410;2023-01-29T15:25:28;312.35;;;106.15;;
9186;SDS011;7273;48.902;9.410;2023-01-29T15:27:59;261.88;;;93.10;;
9186;SDS011;7273;48.902;9.410;2023-01-29T15:30:28;217.63;;;81.65;;
9186;SDS011;7273;48.902;9.410;2023-01-29T15:32:57;213.90;;;79.97;;
9186;SDS011;7273;48.902;9.410;2023-01-29T15:35:29;217.57;;;81.47;;
9186;SDS011;7273;48.902;9.410;2023-01-29T15:38:15;261.15;;;91.75;;
9186;SDS011;7273;48.902;9.410;2023-01-29T15:40:55;248.07;;;89.13;;
9186;SDS011;7273;48.902;9.410;2023-01-29T15:43:26;234.27;;;86.72;;
9186;SDS011;7273;48.902;9.410;2023-01-29T15:45:59;237.20;;;86.63;;
9186;SDS011;7273;48.902;9.410;2023-01-29T15:48:30;229.02;;;86.63;;
9186;SDS011;7273;48.902;9.410;2023-01-29T15:51:00;223.38;;;83.32;;
9186;SDS011;7273;48.902;9.410;2023-01-29T15:53:34;223.40;;;83.25;;
9186;SDS011;7273;48.902;9.410;2023-01-29T15:56:11;230.70;;;85.50;;
9186;SDS011;7273;48.902;9.410;2023-01-29T15:58:42;223.80;;;82.78;;
9186;SDS011;7273;48.902;9.410;2023-01-29T16:01:12;229.57;;;84.88;;
9186;SDS011;7273;48.902;9.410;2023-01-29T16:03:38;235.95;;;86.38;;
9186;SDS011;7273;48.902;9.410;2023-01-29T16:06:04;231.15;;;85.30;;
9186;SDS011;7273;48.902;9.410;2023-01-29T16:08:31;233.75;;;85.93;;
9186;SDS011;7273;48.902;9.410;2023-01-29T16:10:58;234.60;;;87.15;;
9186;SDS011;7273;48.902;9.410;2023-01-29T16:18:31;243.48;;;88.43;;
9186;SDS011;7273;48.902;9.410;2023-01-29T16:21:00;241.50;;;88.05;;
9186;SDS011;7273;48.902;9.410;2023-01-29T16:23:34;244.32;;;89.18;;
9186;SDS011;7273;48.902;9.410;2023-01-29T16:26:05;243.23;;;88.88;;
9186;SDS011;7273;48.902;9.410;2023-01-29T16:28:38;243.38;;;88.18;;
9186;SDS011;7273;48.902;9.410;2023-01-29T16:31:04;232.15;;;85.43;;
9186;SDS011;7273;48.902;9.410;2023-01-29T16:33:36;217.75;;;81.38;;
9186;SDS011;7273;48.902;9.410;2023-01-29T16:36:11;228.32;;;85.47;;
9186;SDS011;7273;48.902;9.410;2023-01-29T16:38:45;234.18;;;86.32;;
9186;SDS011;7273;48.902;9.410;2023-01-29T16:46:17;234.75;;;87.18;;
9186;SDS011;7273;48.902;9.410;2023-01-29T16:48:50;238.45;;;87.63;;
9186;SDS011;7273;48.902;9.410;2023-01-29T16:51:21;240.60;;;89.20;;
9186;SDS011;7273;48.902;9.410;2023-01-29T16:53:59;247.13;;;89.88;;
9186;SDS011;7273;48.902;9.410;2023-01-29T16:56:26;260.10;;;93.88;;
9186;SDS011;7273;48.902;9.410;2023-01-29T16:58:54;278.58;;;98.47;;
9186;SDS011;7273;48.902;9.410;2023-01-29T17:01:20;287.08;;;101.13;;
9186;SDS011;7273;48.902;9.410;2023-01-29T17:03:54;282.45;;;99.57;;
9186;SDS011;7273;48.902;9.410;2023-01-29T17:06:24;271.65;;;97.68;;
9186;SDS011;7273;48.902;9.410;2023-01-29T17:08:51;275.33;;;97.05;;
9186;SDS011;7273;48.902;9.410;2023-01-29T17:11:51;245.38;;;90.05;;
9186;SDS011;7273;48.902;9.410;2023-01-29T17:14:10;237.48;;;88.28;;
9186;SDS011;7273;48.902;9.410;2023-01-29T17:16:48;231.50;;;86.68;;
9186;SDS011;7273;48.902;9.410;2023-01-29T17:19:16;281.02;;;100.13;;
9186;SDS011;7273;48.902;9.410;2023-01-29T17:21:47;219.40;;;83.18;;
9186;SDS011;7273;48.902;9.410;2023-01-29T17:24:13;212.48;;;81.72;;
9186;SDS011;7273;48.902;9.410;2023-01-29T17:26:38;236.45;;;87.68;;
9186;SDS011;7273;48.902;9.410;2023-01-29T17:29:08;264.77;;;96.85;;
9186;SDS011;7273;48.902;9.410;2023-01-29T17:31:39;268.45;;;96.95;;
9186;SDS011;7273;48.902;9.410;2023-01-29T17:34:09;250.18;;;91.90;;
9186;SDS011;7273;48.902;9.410;2023-01-29T17:36:36;222.10;;;84.53;;
9186;SDS011;7273;48.902;9.410;2023-01-29T17:39:04;262.98;;;94.60;;
9186;SDS011;7273;48.902;9.410;2023-01-29T17:44:03;214.85;;;82.40;;
9186;SDS011;7273;48.902;9.410;2023-01-29T17:46:29;172.23;;;70.20;;
9186;SDS011;7273;48.902;9.410;2023-01-29T17:48:54;189.37;;;75.37;;
9186;SDS011;7273;48.902;9.410;2023-01-29T17:51:19;216.48;;;83.05;;
9186;SDS011;7273;48.902;9.410;2023-01-29T17:53:45;256.52;;;93.82;;
9186;SDS011;7273;48.902;9.410;2023-01-29T17:56:31;200.55;;;78.88;;
9186;SDS011;7273;48.902;9.410;2023-01-29T17:58:56;198.32;;;78.25;;
9186;SDS011;7273;48.902;9.410;2023-01-29T18:01:21;218.13;;;82.97;;
9186;SDS011;7273;48.902;9.410;2023-01-29T18:03:47;235.98;;;88.18;;
9186;SDS011;7273;48.902;9.410;2023-01-29T18:06:20;240.95;;;89.82;;
9186;SDS011;7273;48.902;9.410;2023-01-29T18:08:51;252.85;;;93.32;;
9186;SDS011;7273;48.902;9.410;2023-01-29T18:11:16;225.95;;;86.57;;
9186;SDS011;7273;48.902;9.410;2023-01-29T18:13:42;246.07;;;91.28;;
9186;SDS011;7273;48.902;9.410;2023-01-29T18:16:07;266.67;;;96.47;;
9186;SDS011;7273;48.902;9.410;2023-01-29T18:18:33;270.02;;;98.75;;
9186;SDS011;7273;48.902;9.410;2023-01-29T18:20:59;260.60;;;95.93;;
9186;SDS011;7273;48.902;9.410;2023-01-29T18:23:24;256.00;;;94.85;;
9186;SDS011;7273;48.902;9.410;2023-01-29T18:25:50;206.90;;;81.53;;
9186;SDS011;7273;48.902;9.410;2023-01-29T18:28:16;216.48;;;83.07;;
9186;SDS011;7273;48.902;9.410;2023-01-29T18:30:45;214.40;;;82.45;;
9186;SDS011;7273;48.902;9.410;2023-01-29T18:33:11;226.30;;;86.10;;
9186;SDS011;7273;48.902;9.410;2023-01-29T18:35:37;236.93;;;89.30;;
9186;SDS011;7273;48.902;9.410;2023-01-29T18:38:03;274.48;;;99.93;;
9186;SDS011;7273;48.902;9.410;2023-01-29T18:40:29;244.82;;;92.07;;
9186;SDS011;7273;48.902;9.410;2023-01-29T18:42:55;236.82;;;89.82;;
9186;SDS011;7273;48.902;9.410;2023-01-29T18:45:23;234.75;;;88.32;;
9186;SDS011;7273;48.902;9.410;2023-01-29T18:47:49;210.80;;;81.50;;
9186;SDS011;7273;48.902;9.410;2023-01-29T18:50:14;198.88;;;78.00;;
9186;SDS011;7273;48.902;9.410;2023-01-29T18:52:40;204.80;;;80.90;;
9186;SDS011;7273;48.902;9.410;2023-01-29T18:55:07;195.18;;;77.32;;
9186;SDS011;7273;48.902;9.410;2023-01-29T18:57:33;199.10;;;79.13;;
9186;SDS011;7273;48.902;9.410;2023-01-29T18:59:59;195.98;;;77.63;;
9186;SDS011;7273;48.902;9.410;2023-01-29T19:02:25;208.65;;;81.05;;
9186;SDS011;7273;48.902;9.410;2023-01-29T19:04:52;214.87;;;84.90;;
9186;SDS011;7273;48.902;9.410;2023-01-29T19:07:17;212.10;;;82.28;;
9186;SDS011;7273;48.902;9.410;2023-01-29T19:09:43;208.50;;;81.50;;
9186;SDS011;7273;48.902;9.410;2023-01-29T19:12:10;206.50;;;80.47;;
9186;SDS011;7273;48.902;9.410;2023-01-29T19:14:36;201.18;;;79.30;;
9186;SDS011;7273;48.902;9.410;2023-01-29T19:17:01;217.85;;;85.10;;
9186;SDS011;7273;48.902;9.410;2023-01-29T19:19:28;225.00;;;86.03;;
9186;SDS011;7273;48.902;9.410;2023-01-29T19:21:54;205.18;;;80.22;;
9186;SDS011;7273;48.902;9.410;2023-01-29T19:24:20;230.40;;;88.47;;
9186;SDS011;7273;48.902;9.410;2023-01-29T19:26:46;231.93;;;89.30;;
9186;SDS011;7273;48.902;9.410;2023-01-29T19:29:12;232.43;;;88.57;;
9186;SDS011;7273;48.902;9.410;2023-01-29T19:31:38;239.90;;;90.57;;
9186;SDS011;7273;48.902;9.410;2023-01-29T19:34:03;234.13;;;88.83;;
9186;SDS011;7273;48.902;9.410;2023-01-29T19:36:29;241.48;;;90.20;;
9186;SDS011;7273;48.902;9.410;2023-01-29T19:38:55;236.63;;;89.53;;
9186;SDS011;7273;48.902;9.410;2023-01-29T19:41:20;235.82;;;91.45;;
9186;SDS011;7273;48.902;9.410;2023-01-29T19:43:46;246.50;;;93.40;;
9186;SDS011;7273;48.902;9.410;2023-01-29T19:46:12;250.07;;;94.40;;
9186;SDS011;7273;48.902;9.410;2023-01-29T19:48:39;249.93;;;93.30;;
9186;SDS011;7273;48.902;9.410;2023-01-29T19:51:05;198.65;;;78.63;;
9186;SDS011;7273;48.902;9.410;2023-01-29T19:53:32;203.07;;;79.43;;
9186;SDS011;7273;48.902;9.410;2023-01-29T19:56:00;204.82;;;80.28;;
9186;SDS011;7273;48.902;9.410;2023-01-29T19:58:28;208.80;;;81.90;;
9186;SDS011;7273;48.902;9.410;2023-01-29T20:00:57;208.60;;;80.90;;
9186;SDS011;7273;48.902;9.410;2023-01-29T20:03:24;207.95;;;82.05;;
9186;SDS011;7273;48.902;9.410;2023-01-29T20:05:50;212.38;;;82.15;;
9186;SDS011;7273;48.902;9.410;2023-01-29T20:08:16;216.48;;;84.05;;
9186;SDS011;7273;48.902;9.410;2023-01-29T20:10:45;223.30;;;86.22;;
9186;SDS011;7273;48.902;9.410;2023-01-29T20:13:12;228.60;;;87.25;;
9186;SDS011;7273;48.902;9.410;2023-01-29T20:15:42;235.23;;;89.93;;
9186;SDS011;7273;48.902;9.410;2023-01-29T20:18:08;239.93;;;90.18;;
9186;SDS011;7273;48.902;9.410;2023-01-29T20:20:45;232.00;;;88.13;;
9186;SDS011;7273;48.902;9.410;2023-01-29T20:23:13;217.77;;;84.85;;
9186;SDS011;7273;48.902;9.410;2023-01-29T20:25:41;227.43;;;88.35;;
9186;SDS011;7273;48.902;9.410;2023-01-29T20:28:08;222.50;;;85.70;;
9186;SDS011;7273;48.902;9.410;2023-01-29T20:30:36;233.45;;;89.82;;
9186;SDS011;7273;48.902;9.410;2023-01-29T20:33:02;223.20;;;87.05;;
9186;SDS011;7273;48.902;9.410;2023-01-29T20:35:29;233.65;;;89.72;;
9186;SDS011;7273;48.902;9.410;2023-01-29T20:37:56;240.73;;;91.28;;
9186;SDS011;7273;48.902;9.410;2023-01-29T20:40:21;251.15;;;94.60;;
9186;SDS011;7273;48.902;9.410;2023-01-29T20:42:47;252.50;;;95.93;;
9186;SDS011;7273;48.902;9.410;2023-01-29T20:45:13;257.00;;;96.65;;
9186;SDS011;7273;48.902;9.410;2023-01-29T20:47:39;262.10;;;97.70;;
9186;SDS011;7273;48.902;9.410;2023-01-29T20:50:06;266.92;;;98.68;;
9186;SDS011;7273;48.902;9.410;2023-01-29T20:52:36;261.45;;;98.13;;
9186;SDS011;7273;48.902;9.410;2023-01-29T20:55:02;253.43;;;95.35;;
9186;SDS011;7273;48.902;9.410;2023-01-29T20:57:29;264.90;;;99.18;;
9186;SDS011;7273;48.902;9.410;2023-01-29T20:59:56;263.08;;;98.20;;
9186;SDS011;7273;48.902;9.410;2023-01-29T21:02:21;270.23;;;100.32;;
9186;SDS011;7273;48.902;9.410;2023-01-29T21:04:47;225.05;;;86.57;;
9186;SDS011;7273;48.902;9.410;2023-01-29T21:07:12;248.15;;;94.00;;
9186;SDS011;7273;48.902;9.410;2023-01-29T21:09:38;252.18;;;94.47;;
9186;SDS011;7273;48.902;9.410;2023-01-29T21:12:03;247.70;;;95.55;;
9186;SDS011;7273;48.902;9.410;2023-01-29T21:14:29;272.55;;;100.70;;
9186;SDS011;7273;48.902;9.410;2023-01-29T21:16:55;265.42;;;98.25;;
9186;SDS011;7273;48.902;9.410;2023-01-29T21:19:21;284.65;;;105.30;;
9186;SDS011;7273;48.902;9.410;2023-01-29T21:21:46;303.80;;;109.73;;
9186;SDS011;7273;48.902;9.410;2023-01-29T21:24:12;261.00;;;97.50;;
9186;SDS011;7273;48.902;9.410;2023-01-29T21:26:39;300.13;;;108.60;;
9186;SDS011;7273;48.902;9.410;2023-01-29T21:29:05;309.73;;;111.70;;
9186;SDS011;7273;48.902;9.410;2023-01-29T21:31:30;311.52;;;112.55;;
9186;SDS011;7273;48.902;9.410;2023-01-29T21:33:57;193.15;;;78.13;;
9186;SDS011;7273;48.902;9.410;2023-01-29T21:36:22;187.15;;;74.97;;
9186;SDS011;7273;48.902;9.410;2023-01-29T21:38:47;187.20;;;75.37;;
9186;SDS011;7273;48.902;9.410;2023-01-29T21:41:13;187.18;;;75.57;;
9186;SDS011;7273;48.902;9.410;2023-01-29T21:43:38;182.60;;;73.95;;
9186;SDS011;7273;48.902;9.410;2023-01-29T21:46:05;184.13;;;75.07;;
9186;SDS011;7273;48.902;9.410;2023-01-29T21:48:37;185.88;;;75.05;;
9186;SDS011;7273;48.902;9.410;2023-01-29T21:51:04;186.45;;;75.00;;
9186;SDS011;7273;48.902;9.410;2023-01-29T21:53:29;190.10;;;76.72;;
9186;SDS011;7273;48.902;9.410;2023-01-29T21:55:59;190.75;;;76.82;;
9186;SDS011;7273;48.902;9.410;2023-01-29T21:58:25;192.75;;;77.15;;
9186;SDS011;7273;48.902;9.410;2023-01-29T22:00:51;197.43;;;79.18;;
9186;SDS011;7273;48.902;9.410;2023-01-29T22:03:16;213.18;;;83.78;;
9186;SDS011;7273;48.902;9.410;2023-01-29T22:05:42;266.92;;;99.28;;
9186;SDS011;7273;48.902;9.410;2023-01-29T22:08:07;202.90;;;82.70;;
9186;SDS011;7273;48.902;9.410;2023-01-29T22:10:33;211.57;;;83.43;;
9186;SDS011;7273;48.902;9.410;2023-01-29T22:13:00;220.93;;;86.40;;
9186;SDS011;7273;48.902;9.410;2023-01-29T22:15:26;292.13;;;106.55;;
9186;SDS011;7273;48.902;9.410;2023-01-29T22:17:52;333.63;;;119.32;;
9186;SDS011;7273;48.902;9.410;2023-01-29T22:20:17;318.58;;;117.78;;
9186;SDS011;7273;48.902;9.410;2023-01-29T22:22:43;319.23;;;114.93;;
9186;SDS011;7273;48.902;9.410;2023-01-29T22:25:09;361.58;;;127.25;;
9186;SDS011;7273;48.902;9.410;2023-01-29T22:27:35;272.52;;;105.45;;
9186;SDS011;7273;48.902;9.410;2023-01-29T22:30:00;195.38;;;79.03;;
9186;SDS011;7273;48.902;9.410;2023-01-29T22:32:26;190.77;;;77.57;;
9186;SDS011;7273;48.902;9.410;2023-01-29T22:34:51;186.48;;;76.20;;
9186;SDS011;7273;48.902;9.410;2023-01-29T22:37:17;184.95;;;75.95;;
9186;SDS011;7273;48.902;9.410;2023-01-29T22:39:42;178.10;;;76.03;;
9186;SDS011;7273;48.902;9.410;2023-01-29T22:42:08;178.68;;;73.75;;
9186;SDS011;7273;48.902;9.410;2023-01-29T22:44:33;176.40;;;74.60;;
9186;SDS011;7273;48.902;9.410;2023-01-29T22:46:59;177.93;;;73.75;;
9186;SDS011;7273;48.902;9.410;2023-01-29T22:49:24;177.75;;;72.43;;
9186;SDS011;7273;48.902;9.410;2023-01-29T22:51:51;176.75;;;73.55;;
9186;SDS011;7273;48.902;9.410;2023-01-29T22:57:00;181.07;;;75.88;;
9186;SDS011;7273;48.902;9.410;2023-01-29T22:59:25;179.30;;;74.40;;
9186;SDS011;7273;48.902;9.410;2023-01-29T23:01:51;177.35;;;73.90;;
9186;SDS011;7273;48.902;9.410;2023-01-29T23:04:16;177.40;;;73.70;;
9186;SDS011;7273;48.902;9.410;2023-01-29T23:06:41;178.10;;;73.75;;
9186;SDS011;7273;48.902;9.410;2023-01-29T23:09:07;178.73;;;76.67;;
9186;SDS011;7273;48.902;9.410;2023-01-29T23:11:32;178.98;;;74.55;;
9186;SDS011;7273;48.902;9.410;2023-01-29T23:13:58;180.25;;;75.15;;
9186;SDS011;7273;48.902;9.410;2023-01-29T23:16:24;174.45;;;72.63;;
9186;SDS011;7273;48.902;9.410;2023-01-29T23:18:50;177.32;;;74.07;;
9186;SDS011;7273;48.902;9.410;2023-01-29T23:21:17;173.43;;;72.40;;
9186;SDS011;7273;48.902;9.410;2023-01-29T23:23:43;174.85;;;73.40;;
9186;SDS011;7273;48.902;9.410;2023-01-29T23:26:09;175.38;;;75.43;;
9186;SDS011;7273;48.902;9.410;2023-01-29T23:28:54;175.98;;;73.80;;
9186;SDS011;7273;48.902;9.410;2023-01-29T23:31:20;175.25;;;73.53;;
9186;SDS011;7273;48.902;9.410;2023-01-29T23:33:45;173.02;;;72.53;;
9186;SDS011;7273;48.902;9.410;2023-01-29T23:36:11;175.18;;;73.85;;
9186;SDS011;7273;48.902;9.410;2023-01-29T23:38:37;178.35;;;76.10;;
9186;SDS011;7273;48.902;9.410;2023-01-29T23:41:02;174.55;;;73.40;;
9186;SDS011;7273;48.902;9.410;2023-01-29T23:43:28;173.52;;;75.40;;
9186;SDS011;7273;48.902;9.410;2023-01-29T23:45:54;175.52;;;73.55;;
9186;SDS011;7273;48.902;9.410;2023-01-29T23:48:20;172.05;;;74.50;;
9186;SDS011;7273;48.902;9.410;2023-01-29T23:50:46;170.57;;;72.15;;
9186;SDS011;7273;48.902;9.410;2023-01-29T23:53:12;166.70;;;70.20;;
9186;SDS011;7273;48.902;9.410;2023-01-29T23:55:37;165.98;;;72.78;;
9186;SDS011;7273;48.902;9.410;2023-01-29T23:58:03;166.82;;;73.43;;
